Flight Track Log - Related Links

Times and Time Zones

All times are in EDT time to prevent confusion due to time zone crossing. See the ASQ3829 flight status page for this flight to view local times or setup timezone preferences in your user account.

Time Position Orientation Groundspeed Altitude Reporting Facility
EDT Latitude Longitude Course Direction KTS MPH feet Rate Location/Type
Wed 10:23:07 PM 40.6333 -74.2000 229° Southwest 198 228 2,300  Level New York TRACON
Wed 10:24:07 PM 40.6167 -74.2667 252° West 261 300 3,500 1,800 Climbing New York TRACON
Wed 10:25:07 PM 40.6000 -74.3667 258° West 256 295 5,900 2,200 Climbing New York TRACON
Wed 10:26:00 PM 40.5706 -74.8763 258° West  Level FlightAware Approximate
Wed 10:26:07 PM 40.6000 -74.4667 270° West 261 300 7,900  Level New York TRACON
Wed 10:27:00 PM 40.5490 -75.0187 237° Southwest  Level FlightAware Approximate
Wed 10:27:07 PM 40.6000 -74.5500 270° West 263 303 9,900  Level New York TRACON
Wed 10:28:00 PM 40.4811 -75.1284 229° Southwest  Level FlightAware Approximate
Wed 10:28:41 PM 40.5839 -74.6922 262° West 253 291 12,900  Level New York Center
Wed 10:29:39 PM 40.5786 -74.7878 266° West 253 291 14,100 1,109 Climbing New York Center
Wed 10:30:40 PM 40.5689 -74.8936 263° West 281 323 15,100 942 Climbing New York Center
Wed 10:31:40 PM 40.5628 -75.0025 266° West 298 343 16,000 900 Climbing New York Center
Wed 10:32:40 PM 40.5178 -75.0953 237° Southwest 308 354 16,900 942 Climbing New York Center
Wed 10:33:41 PM 40.4600 -75.1900 231° Southwest 327 376 17,900 1,050 Climbing New York Center
Wed 10:34:40 PM 40.3894 -75.2944 228° Southwest 352 405 19,000 958 Climbing New York Center
Wed 10:35:40 PM 40.3358 -75.3861 233° Southwest 352 405 19,800 893 Climbing New York Center
Wed 10:36:41 PM 40.2714 -75.4853 230° Southwest 357 411 20,800 958 Climbing New York Center
Wed 10:37:39 PM 40.2089 -75.5897 232° Southwest 363 418 21,700 1,169 Climbing New York Center
Wed 10:38:39 PM 40.1564 -75.7003 238° Southwest 368 423 23,100 1,388 Climbing New York Center
Wed 10:39:40 PM 40.1019 -75.8050 236° Southwest 363 418 24,500 1,200 Climbing New York Center
Wed 10:40:39 PM 40.0517 -75.9069 237° Southwest 353 406 25,500 958 Climbing New York Center
Wed 10:41:39 PM 39.9969 -76.0142 236° Southwest 353 406 26,400 932 Climbing New York Center
Wed 10:44:05 PM 39.8306 -76.2372 226° Southwest 346 398 28,700 957 Climbing Washington Center
Wed 10:45:06 PM 39.7656 -76.3283 227° Southwest 351 404 29,700 942 Climbing Washington Center
Wed 10:46:06 PM 39.6900 -76.4167 222° Southwest 357 411 30,600 908 Climbing Washington Center
Wed 10:47:05 PM 39.6228 -76.5075 226° Southwest 352 405 31,500 950 Climbing Washington Center
Wed 10:48:06 PM 39.5469 -76.5953 222° Southwest 357 411 32,500 942 Climbing Washington Center
Wed 10:49:06 PM 39.4817 -76.6831 226° Southwest 352 405 33,400 857 Climbing Washington Center
Wed 10:50:05 PM 39.4036 -76.7786 223° Southwest 352 405 34,200 942 Climbing Washington Center
Wed 10:51:07 PM 39.3467 -76.8556 226° Southwest 352 405 35,300 900 Climbing Washington Center
Wed 10:52:05 PM 39.2811 -76.9375 224° Southwest 347 399 36,000 356 Climbing Washington Center
Wed 10:53:05 PM 39.2156 -77.0247 226° Southwest 342 394 36,000  Level Washington Center
Wed 10:54:07 PM 39.1433 -77.1144 224° Southwest 342 394 36,000  Level Washington Center
Wed 10:55:06 PM 39.0692 -77.2092 225° Southwest 360 414 36,000  Level Washington Center
Wed 10:56:06 PM 38.9908 -77.3061 224° Southwest 379 436 36,000  Level Washington Center
Wed 10:57:05 PM 38.9122 -77.4058 225° Southwest 391 450 36,000  Level Washington Center
Wed 10:58:05 PM 38.8272 -77.5050 222° Southwest 407 468 36,000  Level Washington Center
Wed 10:59:06 PM 38.7317 -77.6222 224° Southwest 419 482 36,000  Level Washington Center
Wed 11:00:05 PM 38.6506 -77.7317 227° Southwest 424 488 36,000  Level Washington Center
Wed 11:01:06 PM 38.5714 -77.8328 225° Southwest 419 482 36,000  Level Washington Center
Wed 11:02:05 PM 38.4903 -77.9314 224° Southwest 419 482 36,000  Level Washington Center
Wed 11:03:06 PM 38.4111 -78.0319 225° Southwest 413 475 36,000  Level Washington Center
Wed 11:04:05 PM 38.3300 -78.1328 224° Southwest 408 470 36,000  Level Washington Center
Wed 11:05:05 PM 38.2464 -78.2331 223° Southwest 408 470 36,000  Level Washington Center
Wed 11:06:06 PM 38.1647 -78.3358 225° Southwest 408 470 36,000  Level Washington Center
Wed 11:07:07 PM 38.0811 -78.4381 224° Southwest 408 470 36,000  Level Washington Center
Wed 11:08:05 PM 37.9972 -78.5403 224° Southwest 414 476 36,000  Level Washington Center
Wed 11:09:06 PM 37.9114 -78.6450 224° Southwest 414 476 36,000  Level Washington Center
Wed 11:10:06 PM 37.8231 -78.7492 223° Southwest 421 484 36,000  Level Washington Center
Wed 11:11:07 PM 37.7456 -78.8378 222° Southwest 428 493 36,000  Level Washington Center
Wed 11:12:05 PM 37.6636 -78.9392 224° Southwest 428 493 36,000  Level Washington Center
Wed 11:13:06 PM 37.5772 -79.0378 222° Southwest 423 487 36,000  Level Washington Center
Wed 11:14:07 PM 37.4953 -79.1361 224° Southwest 416 479 36,000  Level Washington Center
Wed 11:15:05 PM 37.3981 -79.2439 221° Southwest 411 473 36,000  Level Washington Center
Wed 11:16:06 PM 37.3092 -79.3494 223° Southwest 423 487 36,000  Level Washington Center
Wed 11:17:07 PM 37.2225 -79.4522 223° Southwest 429 494 36,000  Level Washington Center
Wed 11:18:06 PM 37.1356 -79.5597 225° Southwest 434 499 36,000  Level Washington Center
Wed 11:19:07 PM 37.0486 -79.6619 223° Southwest 434 499 36,000  Level Washington Center
Wed 11:20:54 PM 36.8936 -79.8394 223° Southwest 447 514 36,000  Level Atlanta Center
Wed 11:21:54 PM 36.8053 -79.9400 222° Southwest 447 514 36,000  Level Atlanta Center
Wed 11:22:54 PM 36.7128 -80.0458 223° Southwest 447 514 36,000  Level Atlanta Center
Wed 11:23:54 PM 36.6164 -80.1567 223° Southwest 452 520 36,000  Level Atlanta Center
Wed 11:24:54 PM 36.5236 -80.2619 222° Southwest 452 520 36,000  Level Atlanta Center
Wed 11:25:54 PM 36.4328 -80.3642 222° Southwest 452 520 36,000  Level Atlanta Center
Wed 11:26:54 PM 36.3422 -80.4689 223° Southwest 452 520 36,000  Level Atlanta Center
Wed 11:27:54 PM 36.2594 -80.5625 222° Southwest 452 520 36,000  Level Atlanta Center
Wed 11:28:54 PM 36.1747 -80.6667 225° Southwest 445 512 36,000  Level Atlanta Center
Wed 11:29:54 PM 36.0814 -80.7681 221° Southwest 445 512 36,000  Level Atlanta Center
Wed 11:30:54 PM 35.9903 -80.8719 223° Southwest 450 518 36,000  Level Atlanta Center
Wed 11:31:54 PM 35.9031 -80.9703 222° Southwest 444 511 36,000  Level Atlanta Center
Wed 11:32:54 PM 35.8197 -81.0631 222° Southwest 420 483 36,000  Level Atlanta Center
Wed 11:33:54 PM 35.7386 -81.1556 223° Southwest 405 466 36,000  Level Atlanta Center
Wed 11:34:54 PM 35.6447 -81.2508 220° Southwest 418 481 36,000  Level Atlanta Center
Wed 11:35:54 PM 35.5419 -81.3156 207° Southwest 429 494 36,000  Level Atlanta Center
Wed 11:36:54 PM 35.4172 -81.3325 186° South 434 499 36,000  Level Atlanta Center
Wed 11:37:54 PM 35.2942 -81.3414 183° South 429 494 36,000  Level Atlanta Center
Wed 11:38:54 PM 35.1714 -81.3506 183° South 441 507 36,000  Level Atlanta Center
Wed 11:39:54 PM 35.0528 -81.3594 184° South 435 501 36,000  Level Atlanta Center
Wed 11:41:36 PM 34.8536 -81.3747 184° South 427 491 36,000  Level Jacksonville Center
Wed 11:42:36 PM 34.7350 -81.3844 184° South 427 491 36,000  Level Jacksonville Center
Wed 11:43:36 PM 34.6142 -81.3967 185° South 432 497 36,000  Level Jacksonville Center
Wed 11:44:36 PM 34.4806 -81.4014 182° South 439 505 36,000  Level Jacksonville Center
Wed 11:45:36 PM 34.3597 -81.4086 183° South 439 505 36,000  Level Jacksonville Center
Wed 11:46:36 PM 34.2367 -81.4181 184° South 439 505 36,000  Level Jacksonville Center
Wed 11:47:36 PM 34.1158 -81.4253 183° South 439 505 36,000  Level Jacksonville Center
Wed 11:48:36 PM 33.9950 -81.4347 184° South 439 505 36,000  Level Jacksonville Center
Wed 11:49:36 PM 33.8761 -81.4442 184° South 439 505 36,000  Level Jacksonville Center
Wed 11:50:36 PM 33.7553 -81.4536 184° South 439 505 36,000  Level Jacksonville Center
Wed 11:51:36 PM 33.6342 -81.4631 184° South 439 505 36,000  Level Jacksonville Center
Wed 11:52:36 PM 33.5133 -81.4725 184° South 439 505 36,000  Level Jacksonville Center
Wed 11:53:36 PM 33.3922 -81.4794 183° South 439 505 36,000  Level Jacksonville Center
Wed 11:54:36 PM 33.2756 -81.4889 184° South 439 505 36,000  Level Jacksonville Center
Wed 11:55:36 PM 33.1714 -81.5028 186° South 434 499 36,000  Level Jacksonville Center
Wed 11:56:36 PM 33.0544 -81.5097 183° South 428 493 36,000  Level Jacksonville Center
Wed 11:57:36 PM 32.9397 -81.5164 183° South 422 486 36,000  Level Jacksonville Center
Wed 11:58:36 PM 32.8083 -81.5258 183° South 429 494 36,000 -50 Level Jacksonville Center
Wed 11:59:36 PM 32.7125 -81.5322 183° South 429 494 35,900  Descending Jacksonville Center
Thu 12:00:36 AM 32.5769 -81.5464 185° South 419 482 36,000 50 Climbing Jacksonville Center
Thu 12:01:36 AM 32.4725 -81.5531 183° South 419 482 36,000  Level Jacksonville Center
Thu 12:02:36 AM 32.3475 -81.5622 184° South 419 482 36,000 -300 Level Jacksonville Center
Thu 12:03:36 AM 32.2411 -81.5686 183° South 419 482 35,400 -1,400 Descending Jacksonville Center
Thu 12:04:36 AM 32.1117 -81.5778 183° South 425 489 33,200 -2,187 Descending Jacksonville Center
Thu 12:06:00 AM 31.9650 -81.5730 178° South  Level FlightAware Approximate
Thu 12:12:42 AM 31.1769 -81.6419 185° South 396 456 15,500  Level Jacksonville Center
Thu 12:13:00 AM 31.2326 -81.6217 185° South  Level FlightAware Approximate
Thu 12:13:24 AM 31.1039 -81.6478 184° South 382 440 13,400  Level Jacksonville Center
Thu 12:14:00 AM 31.1281 -81.6322 185° South  Level FlightAware Approximate
Thu 12:14:25 AM 30.9975 -81.6542 183° South 371 427 10,400  Level Jacksonville Center
Thu 12:15:00 AM 31.0234 -81.6333 180° South  Level FlightAware Approximate
Thu 12:15:25 AM 30.9081 -81.6722 190° South 288 331 9,900  Level Jacksonville Center
Thu 12:16:00 AM 30.9194 -81.6468 188° South  Level FlightAware Approximate
Thu 12:16:26 AM 30.8350 -81.6925 193° South 279 321 8,100  Level Jacksonville Center
Thu 12:17:00 AM 30.8151 -81.6585 185° South  Level FlightAware Approximate
Thu 12:17:26 AM 30.7581 -81.7128 193° South 277 319 6,000  Level Jacksonville Center
Thu 12:18:00 AM 30.7267 -81.7228 195° South 279 321 5,000 -1,475 Descending Jacksonville Center
Thu 12:19:28 AM 30.6247 -81.7581 197° South 214 246 3,000 -1,095 Descending Jacksonville Center
Thu 12:20:28 AM 30.5792 -81.7825 205° Southwest 176 203 2,300 -793 Descending Jacksonville Center
Thu 12:21:29 AM 30.5372 -81.7686 164° South 150 173 1,400 -793 Descending Jacksonville Center
Thu 12:22:29 AM 30.5117 -81.7328 130° Southeast 148 170 700 -700 Descending Jacksonville Center
Thu 12:24:00 AM 30.4941 -81.6879 190° South  Level Estimated
Thu 12:31:00 AM 30.4941 -81.6879 190° South  Level Estimated

Login

Don't have an account? Register now (free) for customized features, flight alerts, and more!